Gene Huffty — WDD9076 — position and weather

sailwx.info

Track history (hours):
 
Tides and Currents Weather Stations Pressure Air Temp Water Temp Dewpoint Dewpoint Depression Visibility Wind Speed Wind Dir Waves Ship Positions

Gene Huffty

Owner: Ingram Barge Company LLC, Nashville, TN. More information available from US FCC via Universal Licensing System and Coast Guard Vessel Documentation Center.

Last reported at 2018-Jun-20 19:50 UTC. Time now 2018-Jun-24 20:34 UTC.
Position N 29°51' W 091°54'.

Length 19 m; draft 2.7 m.

Type: Towing. MMSI: 367306470.

Date/timePositionNaut miles runAvg speedWind from/ knotsBaromVisibWave heightAir tempDewpointWater temp
2018-Jun-20 19:50N 29°51' W 091°54'2 3.5
2018-Jun-20 19:18N 29°51' W 091°56'1 3.9
2018-Jun-20 18:58N 29°50' W 091°57'2 3.9
2018-Jun-20 18:30N 29°50' W 091°59'2 3.7
2018-Jun-20 18:00N 29°49' W 092°01'2 4.0
2018-Jun-20 17:30N 29°49' W 092°04'2 4.3
2018-Jun-20 17:00N 29°48' W 092°06'2 4.2
2018-Jun-20 16:30N 29°47' W 092°08'2 3.9
2018-Jun-20 16:00N 29°47' W 092°10'2 3.6
2018-Jun-20 15:30N 29°47' W 092°12'1 1.1
2018-Jun-20 15:00N 29°47' W 092°13'0 0.9
2018-Jun-20 14:30N 29°47' W 092°13'0 0.1
2018-Jun-20 14:00N 29°48' W 092°13'2 3.0
2018-Jun-20 13:30N 29°48' W 092°15'1 2.4
2018-Jun-20 13:00N 29°49' W 092°16'0 0.0
2018-Jun-20 12:30N 29°49' W 092°16'0 0.0
2018-Jun-20 12:00N 29°49' W 092°16'0 0.0
2018-Jun-20 11:30N 29°49' W 092°16'0 0.0
2018-Jun-20 10:56N 29°49' W 092°16'0 0.0
2018-Jun-20 10:27N 29°49' W 092°16'0 0.0
2018-Jun-20 10:00N 29°49' W 092°16'0 0.1
2018-Jun-20 09:30N 29°49' W 092°16'0 0.1
2018-Jun-20 09:00N 29°49' W 092°16'0 0.3
2018-Jun-20 08:30N 29°49' W 092°16'1 1.1
2018-Jun-20 08:00N 29°49' W 092°17'1 1.5
2018-Jun-20 07:30N 29°49' W 092°18'0 0.1
2018-Jun-20 07:00N 29°49' W 092°18'0 0.3
2018-Jun-20 06:30N 29°50' W 092°18'0 0.1
2018-Jun-20 06:00N 29°50' W 092°18'0 0.1
2018-Jun-20 05:30N 29°50' W 092°18'0 0.0
2018-Jun-20 05:00N 29°50' W 092°18'0 0.0
2018-Jun-20 04:30N 29°50' W 092°18'0 0.0
2018-Jun-20 04:00N 29°50' W 092°18'0 0.0
2018-Jun-20 03:30N 29°50' W 092°18'0 0.5
2018-Jun-20 03:00N 29°50' W 092°18'1 1.7
2018-Jun-20 02:30N 29°50' W 092°19'1 2.4
2018-Jun-20 02:00N 29°51' W 092°20'1 2.4
2018-Jun-20 01:30N 29°51' W 092°21'36 3.5
2018-Jun-19 15:14N 29°56' W 093°03'1 3.5
2018-Jun-19 14:59N 29°56' W 093°04'2 3.6
2018-Jun-19 14:30N 29°56' W 093°06'2 3.5
2018-Jun-19 13:59N 29°56' W 093°08'1 2.9
2018-Jun-19 13:30N 29°56' W 093°09'2 3.7
2018-Jun-19 13:00N 29°58' W 093°11'2 3.8
2018-Jun-19 12:30N 29°59' W 093°12'2 3.6
2018-Jun-19 12:00N 30°00' W 093°14'1 3.0
2018-Jun-19 11:30N 30°02' W 093°14'1 1.1
2018-Jun-19 11:00N 30°02' W 093°15'0 0.1
2018-Jun-19 10:30N 30°02' W 093°15'2 3.1
2018-Jun-19 10:00N 30°03' W 093°16'2 3.3
2018-Jun-19 09:30N 30°05' W 093°17'1 1.9
2018-Jun-19 09:00N 30°05' W 093°18'1 2.1
2018-Jun-19 08:30N 30°06' W 093°19'0 0.6
2018-Jun-19 08:00N 30°06' W 093°19'0 0.0
2018-Jun-19 07:30N 30°06' W 093°19'0 0.1
2018-Jun-19 07:00N 30°06' W 093°19'0 0.0
2018-Jun-19 06:29N 30°06' W 093°19'0 0.0
2018-Jun-19 06:00N 30°06' W 093°19'0 0.0
2018-Jun-19 05:30N 30°06' W 093°19'0 0.0
2018-Jun-19 05:00N 30°06' W 093°19'0 0.0
2018-Jun-19 04:30N 30°06' W 093°19'0 0.0
2018-Jun-19 04:00N 30°06' W 093°19'0 0.0
2018-Jun-19 03:29N 30°06' W 093°19'0 0.0
2018-Jun-19 03:00N 30°06' W 093°19'0 0.0
2018-Jun-19 02:30N 30°06' W 093°19'0 0.0
2018-Jun-19 02:00N 30°06' W 093°19'0 0.0
2018-Jun-19 01:30N 30°06' W 093°19'0 0.0
2018-Jun-19 00:59N 30°06' W 093°19'0 0.0
2018-Jun-19 00:30N 30°06' W 093°19'0 0.0
2018-Jun-19 00:00N 30°06' W 093°19'0 0.0
2018-Jun-18 23:30N 30°06' W 093°19'0 0.0
2018-Jun-18 23:00N 30°06' W 093°19'0 0.0
2018-Jun-18 22:30N 30°06' W 093°19'0 0.0
2018-Jun-18 22:00N 30°06' W 093°19'0 0.0
2018-Jun-18 21:30N 30°06' W 093°19'0 0.0
2018-Jun-18 21:00N 30°06' W 093°19'0 0.0
2018-Jun-18 20:29N 30°06' W 093°19'0 0.0
2018-Jun-18 20:00N 30°06' W 093°19'0 0.0
2018-Jun-18 19:30N 30°06' W 093°19'0 0.0
2018-Jun-18 19:00N 30°06' W 093°19'0 0.0
2018-Jun-18 18:30N 30°06' W 093°19'0 0.0
2018-Jun-18 18:00N 30°06' W 093°19'0 0.0
2018-Jun-18 17:30N 30°06' W 093°19'0 0.0
2018-Jun-18 17:00N 30°06' W 093°19'1 2.7
2018-Jun-18 16:30N 30°05' W 093°20'2 3.6
2018-Jun-18 16:00N 30°04' W 093°21'1 1.3
2018-Jun-18 15:30N 30°04' W 093°22'0 0.0
2018-Jun-18 15:00N 30°04' W 093°22'0 0.1
2018-Jun-18 14:28N 30°04' W 093°22'0 0.0
2018-Jun-18 14:00N 30°04' W 093°22'0 0.0
2018-Jun-18 13:30N 30°04' W 093°22'0 0.0
2018-Jun-18 13:00N 30°04' W 093°22'0 0.0
2018-Jun-18 12:30N 30°04' W 093°22'0 0.0
2018-Jun-18 12:00N 30°04' W 093°22'1 1.8
2018-Jun-18 11:30N 30°04' W 093°23'1 2.9
2018-Jun-18 11:00N 30°04' W 093°25'0 0.0
2018-Jun-18 10:30N 30°04' W 093°25'0 0.0
2018-Jun-18 10:00N 30°04' W 093°25'0 0.0
2018-Jun-18 09:30N 30°04' W 093°25'0 0.0
2018-Jun-18 09:00N 30°04' W 093°25'0 0.0
2018-Jun-18 08:30N 30°04' W 093°25'0 0.0
2018-Jun-18 08:00N 30°04' W 093°25'0 0.0
2018-Jun-18 07:30N 30°04' W 093°25'0 0.0
2018-Jun-18 07:00N 30°04' W 093°25'0 0.0
2018-Jun-18 06:30N 30°04' W 093°25'0 0.1
2018-Jun-18 05:59N 30°04' W 093°25'0 0.9
2018-Jun-18 05:30N 30°04' W 093°25'2 3.3
2018-Jun-18 05:00N 30°04' W 093°27'2 3.3
2018-Jun-18 04:30N 30°04' W 093°29'2 4.0
2018-Jun-18 04:00N 30°04' W 093°31'2 3.4
2018-Jun-18 03:30N 30°04' W 093°33'2 3.4
2018-Jun-18 03:00N 30°04' W 093°35'2 3.6
2018-Jun-18 02:28N 30°04' W 093°37'2 3.8
2018-Jun-18 01:59N 30°04' W 093°40'2 3.9
2018-Jun-18 01:30N 30°04' W 093°42'2 3.6
2018-Jun-18 01:00N 30°03' W 093°44'2 4.7
2018-Jun-18 00:30N 30°01' W 093°45'1 1.8
2018-Jun-17 23:59N 30°00' W 093°46'0 0.0
2018-Jun-17 23:30N 30°00' W 093°46'0 0.0
2018-Jun-17 22:59N 30°00' W 093°46'0 0.0
2018-Jun-17 22:30N 30°00' W 093°46'0 0.0
2018-Jun-17 22:00N 30°00' W 093°46'0 0.0
2018-Jun-17 21:30N 30°00' W 093°46'0 0.0
2018-Jun-17 21:00N 30°00' W 093°46'0 0.0
2018-Jun-17 20:30N 30°00' W 093°46'0 0.0
2018-Jun-17 20:00N 30°00' W 093°46'0 0.0
2018-Jun-17 19:30N 30°00' W 093°46'0 0.0
2018-Jun-17 19:00N 30°00' W 093°46'0 0.1
2018-Jun-17 18:30N 30°00' W 093°46'0 0.0
2018-Jun-17 18:00N 30°00' W 093°46'0 0.0
2018-Jun-17 17:30N 30°00' W 093°46'0 0.2
2018-Jun-17 17:00N 30°00' W 093°46'0 0.6
2018-Jun-17 16:30N 30°01' W 093°46'2 4.5
2018-Jun-17 15:59N 30°02' W 093°44'2 4.2
2018-Jun-17 15:30N 30°03' W 093°42'2 4.0
2018-Jun-17 15:00N 30°04' W 093°40'2 4.0
2018-Jun-17 14:30N 30°04' W 093°37'2 4.6
2018-Jun-17 13:59N 30°04' W 093°35'2 4.7
2018-Jun-17 13:30N 30°04' W 093°32'2 4.8
2018-Jun-17 13:00N 30°04' W 093°29'2 4.8
2018-Jun-17 12:30N 30°04' W 093°27'2 4.9
2018-Jun-17 12:00N 30°04' W 093°24'2 4.4
2018-Jun-17 11:30N 30°04' W 093°21'2 3.8
2018-Jun-17 11:00N 30°05' W 093°20'1 2.3
2018-Jun-17 10:30N 30°06' W 093°19'0 0.0
2018-Jun-17 10:00N 30°06' W 093°19'0 0.1
2018-Jun-17 09:30N 30°06' W 093°19'0 0.0
2018-Jun-17 09:00N 30°06' W 093°19'0 0.0
2018-Jun-17 08:30N 30°06' W 093°19'0 0.0
2018-Jun-17 08:00N 30°06' W 093°19'0 0.0
2018-Jun-17 07:30N 30°06' W 093°19'0 0.0
2018-Jun-17 07:00N 30°06' W 093°19'0 0.0
2018-Jun-17 06:30N 30°06' W 093°19'0 0.0
2018-Jun-17 06:00N 30°06' W 093°19'0 0.0
2018-Jun-17 05:30N 30°06' W 093°19'0 0.0
2018-Jun-17 05:00N 30°06' W 093°19'0 0.0
2018-Jun-17 04:30N 30°06' W 093°19'0 0.0
2018-Jun-17 04:00N 30°06' W 093°19'0 0.0
2018-Jun-17 03:30N 30°06' W 093°19'0 0.0
2018-Jun-17 03:00N 30°06' W 093°19'0 0.0
2018-Jun-17 02:30N 30°06' W 093°19'0 0.0
2018-Jun-17 02:00N 30°06' W 093°19'0 0.0
2018-Jun-17 01:30N 30°06' W 093°19'0 0.0
2018-Jun-17 01:00N 30°06' W 093°19'0 0.0
2018-Jun-17 00:30N 30°06' W 093°19'0 0.0
2018-Jun-17 00:00N 30°06' W 093°19'0 0.0
2018-Jun-16 23:30N 30°06' W 093°19'0 0.0
2018-Jun-16 23:00N 30°06' W 093°19'0 0.0
2018-Jun-16 22:30N 30°06' W 093°19'0 0.7
2018-Jun-16 22:00N 30°06' W 093°19'1 2.4
2018-Jun-16 21:30N 30°05' W 093°18'1 1.0
2018-Jun-16 21:00N 30°05' W 093°17'1 1.5
2018-Jun-16 20:30N 30°04' W 093°16'1 1.1
2018-Jun-16 20:00N 30°04' W 093°16'0 0.9
2018-Jun-16 19:30N 30°04' W 093°16'0 0.8
2018-Jun-16 19:00N 30°03' W 093°16'0 0.4
2018-Jun-16 18:30N 30°03' W 093°16'1 3.0
2018-Jun-16 18:00N 30°02' W 093°15'1 1.6
2018-Jun-16 17:30N 30°01' W 093°14'0 0.5
2018-Jun-16 17:00N 30°01' W 093°14'0 0.3
2018-Jun-16 16:30N 30°01' W 093°14'0 0.0
2018-Jun-16 16:00N 30°01' W 093°14'0 0.0
2018-Jun-16 15:30N 30°01' W 093°14'0 0.0
2018-Jun-16 15:00N 30°01' W 093°14'0 0.0
2018-Jun-16 14:30N 30°01' W 093°14'0 0.0
2018-Jun-16 14:00N 30°01' W 093°14'0 0.0
2018-Jun-16 13:30N 30°01' W 093°14'1 1.7
2018-Jun-16 13:00N 30°00' W 093°14'2 3.0
2018-Jun-16 12:30N 29°59' W 093°12'2 3.5
2018-Jun-16 12:00N 29°58' W 093°11'2 3.0
2018-Jun-16 11:30N 29°57' W 093°10'0 0.0
2018-Jun-16 11:00N 29°57' W 093°10'0 0.0
2018-Jun-16 10:30N 29°57' W 093°10'0 0.0
2018-Jun-16 10:00N 29°57' W 093°10'0 0.0
2018-Jun-16 09:30N 29°57' W 093°10'0 0.0
2018-Jun-16 09:00N 29°57' W 093°10'0 0.0
2018-Jun-16 08:30N 29°57' W 093°10'0 0.0
2018-Jun-16 08:00N 29°57' W 093°10'0 0.0
2018-Jun-16 07:30N 29°57' W 093°10'0 0.0
2018-Jun-16 07:00N 29°57' W 093°10'0 0.0
2018-Jun-16 06:30N 29°57' W 093°10'0 0.0
2018-Jun-16 06:00N 29°57' W 093°10'0 0.0
2018-Jun-16 05:30N 29°57' W 093°10'0 0.0
2018-Jun-16 05:00N 29°57' W 093°10'0 0.0
2018-Jun-16 04:30N 29°57' W 093°10'0 0.0
2018-Jun-16 04:00N 29°57' W 093°10'0 0.0
2018-Jun-16 03:30N 29°57' W 093°10'1 1.4
2018-Jun-16 03:00N 29°56' W 093°09'2 3.5
2018-Jun-16 02:30N 29°56' W 093°07'2 3.8
2018-Jun-16 01:59N 29°56' W 093°05'31 2.1
2018-Jun-15 11:33N 29°54' W 092°30'0 3.5
2018-Jun-15 11:28N 29°54' W 092°29'2 3.6
2018-Jun-15 11:00N 29°54' W 092°27'2 3.4
2018-Jun-15 10:30N 29°53' W 092°25'2 3.4
2018-Jun-15 10:00N 29°53' W 092°24'2 3.0
2018-Jun-15 09:30N 29°52' W 092°22'1 2.0
2018-Jun-15 09:00N 29°51' W 092°22'2 3.3
2018-Jun-15 08:30N 29°51' W 092°20'2 3.2
2018-Jun-15 08:00N 29°50' W 092°18'2 3.4
2018-Jun-15 07:30N 29°49' W 092°17'2 3.4
2018-Jun-15 07:00N 29°48' W 092°15'2 3.7
2018-Jun-15 06:30N 29°47' W 092°13'1 1.9
2018-Jun-15 06:00N 29°47' W 092°12'1 2.3
2018-Jun-15 05:30N 29°47' W 092°11'0 0.9
2018-Jun-15 05:00N 29°47' W 092°11'2 3.1
2018-Jun-15 04:30N 29°47' W 092°09'1 2.9
2018-Jun-15 04:00N 29°47' W 092°07'1 2.1
2018-Jun-15 03:30N 29°48' W 092°06'1 2.9
2018-Jun-15 03:00N 29°48' W 092°04'1 2.9
2018-Jun-15 02:30N 29°49' W 092°03'1 2.7
2018-Jun-15 02:00N 29°49' W 092°01'2 3.2
2018-Jun-15 01:30N 29°50' W 091°60'2 3.5
2018-Jun-15 00:58N 29°50' W 091°58'2 3.7
2018-Jun-15 00:30N 29°51' W 091°56'2 3.5
2018-Jun-15 00:00N 29°51' W 091°54'4 3.7
2018-Jun-14 22:58N 29°50' W 091°50'5 0.4
2018-Jun-14 11:48N 29°51' W 091°55'1 3.1
2018-Jun-14 11:30N 29°51' W 091°56'2 2.6
2018-Jun-14 10:53N 29°50' W 091°58'1 2.1
2018-Jun-14 10:30N 29°50' W 091°59'1 3.0
2018-Jun-14 10:00N 29°50' W 092°00'2 3.4
2018-Jun-14 09:30N 29°49' W 092°02'2 3.3
2018-Jun-14 09:00N 29°49' W 092°04'2 3.6
2018-Jun-14 08:30N 29°48' W 092°06'2 3.7
2018-Jun-14 08:00N 29°47' W 092°08'2 4.0
2018-Jun-14 07:30N 29°47' W 092°10'2 3.5
2018-Jun-14 07:00N 29°47' W 092°12'1 1.4
2018-Jun-14 06:30N 29°47' W 092°13'1 2.7
2018-Jun-14 06:00N 29°48' W 092°14'2 3.3
2018-Jun-14 05:30N 29°48' W 092°16'2 3.2
2018-Jun-14 05:00N 29°49' W 092°17'2 3.0
2018-Jun-14 04:30N 29°50' W 092°19'1 2.8
2018-Jun-14 03:59N 29°51' W 092°20'1 2.9
2018-Jun-14 03:30N 29°51' W 092°22'1 2.6
2018-Jun-14 02:59N 29°52' W 092°23'1 2.3
2018-Jun-14 02:26N 29°53' W 092°24'2 3.1
2018-Jun-14 01:54N 29°53' W 092°26'10 3.2
2018-Jun-13 22:43N 29°55' W 092°37'1 3.4
2018-Jun-13 22:30N 29°56' W 092°38'21 3.3
2018-Jun-13 16:14N 29°56' W 093°02'1 3.4
2018-Jun-13 16:00N 29°56' W 093°03'1 3.0
2018-Jun-13 15:30N 29°56' W 093°04'1 1.1
2018-Jun-13 15:00N 29°56' W 093°05'1 1.1
2018-Jun-13 14:30N 29°56' W 093°06'0 0.0
2018-Jun-13 14:00N 29°56' W 093°06'0 0.0
2018-Jun-13 13:30N 29°56' W 093°06'0 0.0
2018-Jun-13 13:00N 29°56' W 093°06'1 1.8
2018-Jun-13 12:30N 29°56' W 093°07'2 3.6
2018-Jun-13 12:00N 29°56' W 093°09'2 3.2
2018-Jun-13 11:30N 29°57' W 093°10'2 3.5
2018-Jun-13 11:00N 29°58' W 093°12'1 2.2
2018-Jun-13 10:30N 29°59' W 093°12'2 3.1
2018-Jun-13 10:00N 30°00' W 093°14'1 2.8
2018-Jun-13 09:30N 30°02' W 093°14'1 2.6
2018-Jun-13 09:00N 30°02' W 093°16'1 2.7
2018-Jun-13 08:30N 30°04' W 093°16'1 2.9
2018-Jun-13 08:00N 30°05' W 093°17'1 1.7
2018-Jun-13 07:30N 30°05' W 093°18'0 0.5
2018-Jun-13 07:00N 30°05' W 093°18'1 1.9
2018-Jun-13 06:30N 30°06' W 093°19'0 0.2
2018-Jun-13 06:00N 30°06' W 093°19'0 0.0
2018-Jun-13 05:30N 30°06' W 093°19'0 0.0
2018-Jun-13 05:00N 30°06' W 093°19'0 0.0
2018-Jun-13 04:30N 30°06' W 093°19'0 0.0
2018-Jun-13 04:00N 30°06' W 093°19'0 0.0
2018-Jun-13 03:30N 30°06' W 093°19'0 0.0
2018-Jun-13 03:00N 30°06' W 093°19'0 0.0
2018-Jun-13 02:30N 30°06' W 093°19'0 0.0
2018-Jun-13 02:00N 30°06' W 093°19'0 0.0
2018-Jun-13 01:30N 30°06' W 093°19'0 0.0
2018-Jun-13 01:00N 30°06' W 093°19'0 0.0
2018-Jun-13 00:30N 30°06' W 093°19'0 0.0
2018-Jun-12 23:59N 30°06' W 093°19'0 0.0
2018-Jun-12 23:30N 30°06' W 093°19'0 0.0
2018-Jun-12 23:00N 30°06' W 093°19'0 0.4
2018-Jun-12 22:30N 30°06' W 093°19'2 4.1
2018-Jun-12 22:00N 30°04' W 093°21'1 2.6
2018-Jun-12 21:30N 30°04' W 093°22'0 0.1
2018-Jun-12 20:59N 30°04' W 093°22'0 0.1
2018-Jun-12 20:30N 30°04' W 093°22'0 0.8
2018-Jun-12 20:00N 30°04' W 093°21'0 0.2
2018-Jun-12 19:30N 30°04' W 093°21'0 0.7
2018-Jun-12 19:00N 30°04' W 093°22'0 0.4
2018-Jun-12 18:30N 30°04' W 093°22'0 0.1
2018-Jun-12 18:00N 30°04' W 093°22'0 0.0
2018-Jun-12 17:30N 30°04' W 093°22'0 0.0
2018-Jun-12 17:00N 30°04' W 093°22'0 0.0
2018-Jun-12 16:30N 30°04' W 093°22'0 0.0
2018-Jun-12 16:00N 30°04' W 093°22'0 0.0
2018-Jun-12 15:30N 30°04' W 093°22'0 0.0
2018-Jun-12 15:00N 30°04' W 093°22'0 0.0
2018-Jun-12 14:30N 30°04' W 093°22'0 0.0
2018-Jun-12 14:00N 30°04' W 093°22'0 0.0
2018-Jun-12 13:30N 30°04' W 093°22'0 0.0
2018-Jun-12 13:00N 30°04' W 093°22'0 0.1
2018-Jun-12 12:31N 30°04' W 093°22'0 0.0
2018-Jun-12 12:00N 30°04' W 093°22'0 0.0
2018-Jun-12 11:30N 30°04' W 093°22'0 0.0
2018-Jun-12 11:00N 30°04' W 093°22'0 0.0
2018-Jun-12 10:31N 30°04' W 093°22'0 0.1
2018-Jun-12 10:00N 30°04' W 093°22'0 0.0
2018-Jun-12 09:30N 30°04' W 093°22'0 0.0
2018-Jun-12 09:00N 30°04' W 093°22'0 0.0
2018-Jun-12 08:30N 30°04' W 093°22'0 0.0
2018-Jun-12 08:00N 30°04' W 093°22'0 0.0
2018-Jun-12 07:30N 30°04' W 093°22'0 0.0
2018-Jun-12 07:00N 30°04' W 093°22'0 0.1
2018-Jun-12 06:30N 30°04' W 093°22'0 0.0
2018-Jun-12 06:00N 30°04' W 093°22'0 0.1
2018-Jun-12 05:30N 30°04' W 093°22'0 0.0
2018-Jun-12 05:00N 30°04' W 093°22'1 1.8
2018-Jun-12 04:30N 30°04' W 093°21'1 2.8
2018-Jun-12 04:00N 30°05' W 093°20'1 1.6
2018-Jun-12 03:30N 30°04' W 093°20'1 2.8
2018-Jun-12 03:00N 30°04' W 093°22'0 0.1
2018-Jun-12 02:30N 30°04' W 093°22'0 0.7
2018-Jun-12 02:00N 30°04' W 093°21'0 0.9
2018-Jun-12 01:29N 30°04' W 093°22'0 0.1
2018-Jun-12 01:00N 30°04' W 093°22'2 3.1
2018-Jun-12 00:30N 30°04' W 093°24'2 4.7
2018-Jun-12 00:00N 30°04' W 093°26'2 4.8
2018-Jun-11 23:30N 30°04' W 093°29'2 4.8
2018-Jun-11 23:00N 30°04' W 093°32'3 4.7
2018-Jun-11 22:28N 30°04' W 093°35'2 4.8
2018-Jun-11 22:00N 30°04' W 093°37'3 5.1
2018-Jun-11 21:30N 30°04' W 093°40'3 5.5
2018-Jun-11 21:00N 30°03' W 093°44'3 5.9
2018-Jun-11 20:30N 30°01' W 093°46'3 6.1
2018-Jun-11 20:00N 29°59' W 093°49'3 5.2
2018-Jun-11 19:30N 29°58' W 093°51'1 1.5
2018-Jun-11 19:00N 29°57' W 093°52'0 0.0
2018-Jun-11 18:30N 29°57' W 093°52'0 0.1
2018-Jun-11 18:00N 29°57' W 093°52'0 0.7
2018-Jun-11 17:30N 29°58' W 093°52'0 0.3
2018-Jun-11 17:00N 29°58' W 093°52'0 0.1
2018-Jun-11 12:57N 29°58' W 093°52'0 0.0
2018-Jun-11 12:30N 29°58' W 093°52'1 1.2
2018-Jun-11 12:01N 29°58' W 093°52'0 0.5
2018-Jun-11 11:31N 29°58' W 093°52'0 0.0
2018-Jun-11 11:00N 29°58' W 093°52'0 0.0
2018-Jun-11 10:30N 29°58' W 093°52'0 0.0
2018-Jun-11 10:00N 29°58' W 093°52'0 0.0
2018-Jun-11 09:30N 29°58' W 093°52'0 0.0
2018-Jun-11 09:00N 29°58' W 093°52'0 0.0
2018-Jun-11 08:30N 29°58' W 093°52'0 0.0
2018-Jun-11 08:00N 29°58' W 093°52'0 0.0
2018-Jun-11 07:30N 29°58' W 093°52'0 0.0
2018-Jun-11 07:00N 29°58' W 093°52'0 0.0
2018-Jun-11 06:30N 29°58' W 093°52'0 0.3
2018-Jun-11 06:01N 29°58' W 093°52'1 1.0
2018-Jun-11 05:30N 29°57' W 093°52'2 4.2
2018-Jun-11 05:01N 29°55' W 093°53'4 7.4
2018-Jun-11 04:30N 29°52' W 093°56'2 4.7
2018-Jun-11 04:00N 29°50' W 093°57'2 3.2
2018-Jun-11 03:30N 29°49' W 093°58'0 0.0
2018-Jun-11 03:00N 29°49' W 093°58'0 0.0
2018-Jun-11 02:30N 29°49' W 093°58'0 0.1
2018-Jun-11 02:00N 29°49' W 093°58'0 0.3
2018-Jun-11 01:30N 29°49' W 093°58'0 0.4
2018-Jun-11 01:00N 29°49' W 093°58'0 0.1
2018-Jun-11 00:30N 29°49' W 093°58'0 0.0
2018-Jun-11 00:00N 29°49' W 093°58'0 0.0
2018-Jun-10 23:30N 29°49' W 093°58'0 0.0
2018-Jun-10 23:00N 29°49' W 093°58'0 0.1
2018-Jun-10 22:30N 29°49' W 093°58'0 0.1
2018-Jun-10 22:00N 29°49' W 093°58'0 0.0
2018-Jun-10 21:29N 29°49' W 093°58'0 0.0
2018-Jun-10 21:00N 29°49' W 093°58'1 1.5
2018-Jun-10 20:30N 29°50' W 093°57'3 5.5
2018-Jun-10 20:00N 29°52' W 093°56'  
Track history (hours):
 
Tides and Currents Weather Stations Pressure Air Temp Water Temp Dewpoint Dewpoint Depression Visibility Wind Speed Wind Dir Waves Ship Positions

Gene Huffty

Owner: Ingram Barge Company LLC, Nashville, TN. More information available from US FCC via Universal Licensing System and Coast Guard Vessel Documentation Center.

Last reported at 2018-Jun-20 19:50 UTC. Time now 2018-Jun-24 20:34 UTC.
Position N 29°51' W 091°54'.

Length 19 m; draft 2.7 m.

Type: Towing. MMSI: 367306470.

Date/timePositionNaut miles runAvg speedWind from/ knotsBaromVisibWave heightAir tempDewpointWater temp
2018-Jun-20 19:50N 29°51' W 091°54'2 3.5
2018-Jun-20 19:18N 29°51' W 091°56'1 3.9
2018-Jun-20 18:58N 29°50' W 091°57'2 3.9
2018-Jun-20 18:30N 29°50' W 091°59'2 3.7
2018-Jun-20 18:00N 29°49' W 092°01'2 4.0
2018-Jun-20 17:30N 29°49' W 092°04'2 4.3
2018-Jun-20 17:00N 29°48' W 092°06'2 4.2
2018-Jun-20 16:30N 29°47' W 092°08'2 3.9
2018-Jun-20 16:00N 29°47' W 092°10'2 3.6
2018-Jun-20 15:30N 29°47' W 092°12'1 1.1
2018-Jun-20 15:00N 29°47' W 092°13'0 0.9
2018-Jun-20 14:30N 29°47' W 092°13'0 0.1
2018-Jun-20 14:00N 29°48' W 092°13'2 3.0
2018-Jun-20 13:30N 29°48' W 092°15'1 2.4
2018-Jun-20 13:00N 29°49' W 092°16'0 0.0
2018-Jun-20 12:30N 29°49' W 092°16'0 0.0
2018-Jun-20 12:00N 29°49' W 092°16'0 0.0
2018-Jun-20 11:30N 29°49' W 092°16'0 0.0
2018-Jun-20 10:56N 29°49' W 092°16'0 0.0
2018-Jun-20 10:27N 29°49' W 092°16'0 0.0
2018-Jun-20 10:00N 29°49' W 092°16'0 0.1
2018-Jun-20 09:30N 29°49' W 092°16'0 0.1
2018-Jun-20 09:00N 29°49' W 092°16'0 0.3
2018-Jun-20 08:30N 29°49' W 092°16'1 1.1
2018-Jun-20 08:00N 29°49' W 092°17'1 1.5
2018-Jun-20 07:30N 29°49' W 092°18'0 0.1
2018-Jun-20 07:00N 29°49' W 092°18'0 0.3
2018-Jun-20 06:30N 29°50' W 092°18'0 0.1
2018-Jun-20 06:00N 29°50' W 092°18'0 0.1
2018-Jun-20 05:30N 29°50' W 092°18'0 0.0
2018-Jun-20 05:00N 29°50' W 092°18'0 0.0
2018-Jun-20 04:30N 29°50' W 092°18'0 0.0
2018-Jun-20 04:00N 29°50' W 092°18'0 0.0
2018-Jun-20 03:30N 29°50' W 092°18'0 0.5
2018-Jun-20 03:00N 29°50' W 092°18'1 1.7
2018-Jun-20 02:30N 29°50' W 092°19'1 2.4
2018-Jun-20 02:00N 29°51' W 092°20'1 2.4
2018-Jun-20 01:30N 29°51' W 092°21'36 3.5
2018-Jun-19 15:14N 29°56' W 093°03'1 3.5
2018-Jun-19 14:59N 29°56' W 093°04'2 3.6
2018-Jun-19 14:30N 29°56' W 093°06'2 3.5
2018-Jun-19 13:59N 29°56' W 093°08'1 2.9
2018-Jun-19 13:30N 29°56' W 093°09'2 3.7
2018-Jun-19 13:00N 29°58' W 093°11'2 3.8
2018-Jun-19 12:30N 29°59' W 093°12'2 3.6
2018-Jun-19 12:00N 30°00' W 093°14'1 3.0
2018-Jun-19 11:30N 30°02' W 093°14'1 1.1
2018-Jun-19 11:00N 30°02' W 093°15'0 0.1
2018-Jun-19 10:30N 30°02' W 093°15'2 3.1
2018-Jun-19 10:00N 30°03' W 093°16'2 3.3
2018-Jun-19 09:30N 30°05' W 093°17'1 1.9
2018-Jun-19 09:00N 30°05' W 093°18'1 2.1
2018-Jun-19 08:30N 30°06' W 093°19'0 0.6
2018-Jun-19 08:00N 30°06' W 093°19'0 0.0
2018-Jun-19 07:30N 30°06' W 093°19'0 0.1
2018-Jun-19 07:00N 30°06' W 093°19'0 0.0
2018-Jun-19 06:29N 30°06' W 093°19'0 0.0
2018-Jun-19 06:00N 30°06' W 093°19'0 0.0
2018-Jun-19 05:30N 30°06' W 093°19'0 0.0
2018-Jun-19 05:00N 30°06' W 093°19'0 0.0
2018-Jun-19 04:30N 30°06' W 093°19'0 0.0
2018-Jun-19 04:00N 30°06' W 093°19'0 0.0
2018-Jun-19 03:29N 30°06' W 093°19'0 0.0
2018-Jun-19 03:00N 30°06' W 093°19'0 0.0
2018-Jun-19 02:30N 30°06' W 093°19'0 0.0
2018-Jun-19 02:00N 30°06' W 093°19'0 0.0
2018-Jun-19 01:30N 30°06' W 093°19'0 0.0
2018-Jun-19 00:59N 30°06' W 093°19'0 0.0
2018-Jun-19 00:30N 30°06' W 093°19'0 0.0
2018-Jun-19 00:00N 30°06' W 093°19'0 0.0
2018-Jun-18 23:30N 30°06' W 093°19'0 0.0
2018-Jun-18 23:00N 30°06' W 093°19'0 0.0
2018-Jun-18 22:30N 30°06' W 093°19'0 0.0
2018-Jun-18 22:00N 30°06' W 093°19'0 0.0
2018-Jun-18 21:30N 30°06' W 093°19'0 0.0
2018-Jun-18 21:00N 30°06' W 093°19'0 0.0
2018-Jun-18 20:29N 30°06' W 093°19'0 0.0
2018-Jun-18 20:00N 30°06' W 093°19'0 0.0
2018-Jun-18 19:30N 30°06' W 093°19'0 0.0
2018-Jun-18 19:00N 30°06' W 093°19'0 0.0
2018-Jun-18 18:30N 30°06' W 093°19'0 0.0
2018-Jun-18 18:00N 30°06' W 093°19'0 0.0
2018-Jun-18 17:30N 30°06' W 093°19'0 0.0
2018-Jun-18 17:00N 30°06' W 093°19'1 2.7
2018-Jun-18 16:30N 30°05' W 093°20'2 3.6
2018-Jun-18 16:00N 30°04' W 093°21'1 1.3
2018-Jun-18 15:30N 30°04' W 093°22'0 0.0
2018-Jun-18 15:00N 30°04' W 093°22'0 0.1
2018-Jun-18 14:28N 30°04' W 093°22'0 0.0
2018-Jun-18 14:00N 30°04' W 093°22'0 0.0
2018-Jun-18 13:30N 30°04' W 093°22'0 0.0
2018-Jun-18 13:00N 30°04' W 093°22'0 0.0
2018-Jun-18 12:30N 30°04' W 093°22'0 0.0
2018-Jun-18 12:00N 30°04' W 093°22'1 1.8
2018-Jun-18 11:30N 30°04' W 093°23'1 2.9
2018-Jun-18 11:00N 30°04' W 093°25'0 0.0
2018-Jun-18 10:30N 30°04' W 093°25'0 0.0
2018-Jun-18 10:00N 30°04' W 093°25'0 0.0
2018-Jun-18 09:30N 30°04' W 093°25'0 0.0
2018-Jun-18 09:00N 30°04' W 093°25'0 0.0
2018-Jun-18 08:30N 30°04' W 093°25'0 0.0
2018-Jun-18 08:00N 30°04' W 093°25'0 0.0
2018-Jun-18 07:30N 30°04' W 093°25'0 0.0
2018-Jun-18 07:00N 30°04' W 093°25'0 0.0
2018-Jun-18 06:30N 30°04' W 093°25'0 0.1
2018-Jun-18 05:59N 30°04' W 093°25'0 0.9
2018-Jun-18 05:30N 30°04' W 093°25'2 3.3
2018-Jun-18 05:00N 30°04' W 093°27'2 3.3
2018-Jun-18 04:30N 30°04' W 093°29'2 4.0
2018-Jun-18 04:00N 30°04' W 093°31'2 3.4
2018-Jun-18 03:30N 30°04' W 093°33'2 3.4
2018-Jun-18 03:00N 30°04' W 093°35'2 3.6
2018-Jun-18 02:28N 30°04' W 093°37'2 3.8
2018-Jun-18 01:59N 30°04' W 093°40'2 3.9
2018-Jun-18 01:30N 30°04' W 093°42'2 3.6
2018-Jun-18 01:00N 30°03' W 093°44'2 4.7
2018-Jun-18 00:30N 30°01' W 093°45'1 1.8
2018-Jun-17 23:59N 30°00' W 093°46'0 0.0
2018-Jun-17 23:30N 30°00' W 093°46'0 0.0
2018-Jun-17 22:59N 30°00' W 093°46'0 0.0
2018-Jun-17 22:30N 30°00' W 093°46'0 0.0
2018-Jun-17 22:00N 30°00' W 093°46'0 0.0
2018-Jun-17 21:30N 30°00' W 093°46'0 0.0
2018-Jun-17 21:00N 30°00' W 093°46'0 0.0
2018-Jun-17 20:30N 30°00' W 093°46'0 0.0
2018-Jun-17 20:00N 30°00' W 093°46'0 0.0
2018-Jun-17 19:30N 30°00' W 093°46'0 0.0
2018-Jun-17 19:00N 30°00' W 093°46'0 0.1
2018-Jun-17 18:30N 30°00' W 093°46'0 0.0
2018-Jun-17 18:00N 30°00' W 093°46'0 0.0
2018-Jun-17 17:30N 30°00' W 093°46'0 0.2
2018-Jun-17 17:00N 30°00' W 093°46'0 0.6
2018-Jun-17 16:30N 30°01' W 093°46'2 4.5
2018-Jun-17 15:59N 30°02' W 093°44'2 4.2
2018-Jun-17 15:30N 30°03' W 093°42'2 4.0
2018-Jun-17 15:00N 30°04' W 093°40'2 4.0
2018-Jun-17 14:30N 30°04' W 093°37'2 4.6
2018-Jun-17 13:59N 30°04' W 093°35'2 4.7
2018-Jun-17 13:30N 30°04' W 093°32'2 4.8
2018-Jun-17 13:00N 30°04' W 093°29'2 4.8
2018-Jun-17 12:30N 30°04' W 093°27'2 4.9
2018-Jun-17 12:00N 30°04' W 093°24'2 4.4
2018-Jun-17 11:30N 30°04' W 093°21'2 3.8
2018-Jun-17 11:00N 30°05' W 093°20'1 2.3
2018-Jun-17 10:30N 30°06' W 093°19'0 0.0
2018-Jun-17 10:00N 30°06' W 093°19'0 0.1
2018-Jun-17 09:30N 30°06' W 093°19'0 0.0
2018-Jun-17 09:00N 30°06' W 093°19'0 0.0
2018-Jun-17 08:30N 30°06' W 093°19'0 0.0
2018-Jun-17 08:00N 30°06' W 093°19'0 0.0
2018-Jun-17 07:30N 30°06' W 093°19'0 0.0
2018-Jun-17 07:00N 30°06' W 093°19'0 0.0
2018-Jun-17 06:30N 30°06' W 093°19'0 0.0
2018-Jun-17 06:00N 30°06' W 093°19'0 0.0
2018-Jun-17 05:30N 30°06' W 093°19'0 0.0
2018-Jun-17 05:00N 30°06' W 093°19'0 0.0
2018-Jun-17 04:30N 30°06' W 093°19'0 0.0
2018-Jun-17 04:00N 30°06' W 093°19'0 0.0
2018-Jun-17 03:30N 30°06' W 093°19'0 0.0
2018-Jun-17 03:00N 30°06' W 093°19'0 0.0
2018-Jun-17 02:30N 30°06' W 093°19'0 0.0
2018-Jun-17 02:00N 30°06' W 093°19'0 0.0
2018-Jun-17 01:30N 30°06' W 093°19'0 0.0
2018-Jun-17 01:00N 30°06' W 093°19'0 0.0
2018-Jun-17 00:30N 30°06' W 093°19'0 0.0
2018-Jun-17 00:00N 30°06' W 093°19'0 0.0
2018-Jun-16 23:30N 30°06' W 093°19'0 0.0
2018-Jun-16 23:00N 30°06' W 093°19'0 0.0
2018-Jun-16 22:30N 30°06' W 093°19'0 0.7
2018-Jun-16 22:00N 30°06' W 093°19'1 2.4
2018-Jun-16 21:30N 30°05' W 093°18'1 1.0
2018-Jun-16 21:00N 30°05' W 093°17'1 1.5
2018-Jun-16 20:30N 30°04' W 093°16'1 1.1
2018-Jun-16 20:00N 30°04' W 093°16'0 0.9
2018-Jun-16 19:30N 30°04' W 093°16'0 0.8
2018-Jun-16 19:00N 30°03' W 093°16'0 0.4
2018-Jun-16 18:30N 30°03' W 093°16'1 3.0
2018-Jun-16 18:00N 30°02' W 093°15'1 1.6
2018-Jun-16 17:30N 30°01' W 093°14'0 0.5
2018-Jun-16 17:00N 30°01' W 093°14'0 0.3
2018-Jun-16 16:30N 30°01' W 093°14'0 0.0
2018-Jun-16 16:00N 30°01' W 093°14'0 0.0
2018-Jun-16 15:30N 30°01' W 093°14'0 0.0
2018-Jun-16 15:00N 30°01' W 093°14'0 0.0
2018-Jun-16 14:30N 30°01' W 093°14'0 0.0
2018-Jun-16 14:00N 30°01' W 093°14'0 0.0
2018-Jun-16 13:30N 30°01' W 093°14'1 1.7
2018-Jun-16 13:00N 30°00' W 093°14'2 3.0
2018-Jun-16 12:30N 29°59' W 093°12'2 3.5
2018-Jun-16 12:00N 29°58' W 093°11'2 3.0
2018-Jun-16 11:30N 29°57' W 093°10'0 0.0
2018-Jun-16 11:00N 29°57' W 093°10'0 0.0
2018-Jun-16 10:30N 29°57' W 093°10'0 0.0
2018-Jun-16 10:00N 29°57' W 093°10'0 0.0
2018-Jun-16 09:30N 29°57' W 093°10'0 0.0
2018-Jun-16 09:00N 29°57' W 093°10'0 0.0
2018-Jun-16 08:30N 29°57' W 093°10'0 0.0
2018-Jun-16 08:00N 29°57' W 093°10'0 0.0
2018-Jun-16 07:30N 29°57' W 093°10'0 0.0
2018-Jun-16 07:00N 29°57' W 093°10'0 0.0
2018-Jun-16 06:30N 29°57' W 093°10'0 0.0
2018-Jun-16 06:00N 29°57' W 093°10'0 0.0
2018-Jun-16 05:30N 29°57' W 093°10'0 0.0
2018-Jun-16 05:00N 29°57' W 093°10'0 0.0
2018-Jun-16 04:30N 29°57' W 093°10'0 0.0
2018-Jun-16 04:00N 29°57' W 093°10'0 0.0
2018-Jun-16 03:30N 29°57' W 093°10'1 1.4
2018-Jun-16 03:00N 29°56' W 093°09'2 3.5
2018-Jun-16 02:30N 29°56' W 093°07'2 3.8
2018-Jun-16 01:59N 29°56' W 093°05'31 2.1
2018-Jun-15 11:33N 29°54' W 092°30'0 3.5
2018-Jun-15 11:28N 29°54' W 092°29'2 3.6
2018-Jun-15 11:00N 29°54' W 092°27'2 3.4
2018-Jun-15 10:30N 29°53' W 092°25'2 3.4
2018-Jun-15 10:00N 29°53' W 092°24'2 3.0
2018-Jun-15 09:30N 29°52' W 092°22'1 2.0
2018-Jun-15 09:00N 29°51' W 092°22'2 3.3
2018-Jun-15 08:30N 29°51' W 092°20'2 3.2
2018-Jun-15 08:00N 29°50' W 092°18'2 3.4
2018-Jun-15 07:30N 29°49' W 092°17'2 3.4
2018-Jun-15 07:00N 29°48' W 092°15'2 3.7
2018-Jun-15 06:30N 29°47' W 092°13'1 1.9
2018-Jun-15 06:00N 29°47' W 092°12'1 2.3
2018-Jun-15 05:30N 29°47' W 092°11'0 0.9
2018-Jun-15 05:00N 29°47' W 092°11'2 3.1
2018-Jun-15 04:30N 29°47' W 092°09'1 2.9
2018-Jun-15 04:00N 29°47' W 092°07'1 2.1
2018-Jun-15 03:30N 29°48' W 092°06'1 2.9
2018-Jun-15 03:00N 29°48' W 092°04'1 2.9
2018-Jun-15 02:30N 29°49' W 092°03'1 2.7
2018-Jun-15 02:00N 29°49' W 092°01'2 3.2
2018-Jun-15 01:30N 29°50' W 091°60'2 3.5
2018-Jun-15 00:58N 29°50' W 091°58'2 3.7
2018-Jun-15 00:30N 29°51' W 091°56'2 3.5
2018-Jun-15 00:00N 29°51' W 091°54'4 3.7
2018-Jun-14 22:58N 29°50' W 091°50'5 0.4
2018-Jun-14 11:48N 29°51' W 091°55'1 3.1
2018-Jun-14 11:30N 29°51' W 091°56'2 2.6
2018-Jun-14 10:53N 29°50' W 091°58'1 2.1
2018-Jun-14 10:30N 29°50' W 091°59'1 3.0
2018-Jun-14 10:00N 29°50' W 092°00'2 3.4
2018-Jun-14 09:30N 29°49' W 092°02'2 3.3
2018-Jun-14 09:00N 29°49' W 092°04'2 3.6
2018-Jun-14 08:30N 29°48' W 092°06'2 3.7
2018-Jun-14 08:00N 29°47' W 092°08'2 4.0
2018-Jun-14 07:30N 29°47' W 092°10'2 3.5
2018-Jun-14 07:00N 29°47' W 092°12'1 1.4
2018-Jun-14 06:30N 29°47' W 092°13'1 2.7
2018-Jun-14 06:00N 29°48' W 092°14'2 3.3
2018-Jun-14 05:30N 29°48' W 092°16'2 3.2
2018-Jun-14 05:00N 29°49' W 092°17'2 3.0
2018-Jun-14 04:30N 29°50' W 092°19'1 2.8
2018-Jun-14 03:59N 29°51' W 092°20'1 2.9
2018-Jun-14 03:30N 29°51' W 092°22'1 2.6
2018-Jun-14 02:59N 29°52' W 092°23'1 2.3
2018-Jun-14 02:26N 29°53' W 092°24'2 3.1
2018-Jun-14 01:54N 29°53' W 092°26'10 3.2
2018-Jun-13 22:43N 29°55' W 092°37'1 3.4
2018-Jun-13 22:30N 29°56' W 092°38'21 3.3
2018-Jun-13 16:14N 29°56' W 093°02'1 3.4
2018-Jun-13 16:00N 29°56' W 093°03'1 3.0
2018-Jun-13 15:30N 29°56' W 093°04'1 1.1
2018-Jun-13 15:00N 29°56' W 093°05'1 1.1
2018-Jun-13 14:30N 29°56' W 093°06'0 0.0
2018-Jun-13 14:00N 29°56' W 093°06'0 0.0
2018-Jun-13 13:30N 29°56' W 093°06'0 0.0
2018-Jun-13 13:00N 29°56' W 093°06'1 1.8
2018-Jun-13 12:30N 29°56' W 093°07'2 3.6
2018-Jun-13 12:00N 29°56' W 093°09'2 3.2
2018-Jun-13 11:30N 29°57' W 093°10'2 3.5
2018-Jun-13 11:00N 29°58' W 093°12'1 2.2
2018-Jun-13 10:30N 29°59' W 093°12'2 3.1
2018-Jun-13 10:00N 30°00' W 093°14'1 2.8
2018-Jun-13 09:30N 30°02' W 093°14'1 2.6
2018-Jun-13 09:00N 30°02' W 093°16'1 2.7
2018-Jun-13 08:30N 30°04' W 093°16'1 2.9
2018-Jun-13 08:00N 30°05' W 093°17'1 1.7
2018-Jun-13 07:30N 30°05' W 093°18'0 0.5
2018-Jun-13 07:00N 30°05' W 093°18'1 1.9
2018-Jun-13 06:30N 30°06' W 093°19'0 0.2
2018-Jun-13 06:00N 30°06' W 093°19'0 0.0
2018-Jun-13 05:30N 30°06' W 093°19'0 0.0
2018-Jun-13 05:00N 30°06' W 093°19'0 0.0
2018-Jun-13 04:30N 30°06' W 093°19'0 0.0
2018-Jun-13 04:00N 30°06' W 093°19'0 0.0
2018-Jun-13 03:30N 30°06' W 093°19'0 0.0
2018-Jun-13 03:00N 30°06' W 093°19'0 0.0
2018-Jun-13 02:30N 30°06' W 093°19'0 0.0
2018-Jun-13 02:00N 30°06' W 093°19'0 0.0
2018-Jun-13 01:30N 30°06' W 093°19'0 0.0
2018-Jun-13 01:00N 30°06' W 093°19'0 0.0
2018-Jun-13 00:30N 30°06' W 093°19'0 0.0
2018-Jun-12 23:59N 30°06' W 093°19'0 0.0
2018-Jun-12 23:30N 30°06' W 093°19'0 0.0
2018-Jun-12 23:00N 30°06' W 093°19'0 0.4
2018-Jun-12 22:30N 30°06' W 093°19'2 4.1
2018-Jun-12 22:00N 30°04' W 093°21'1 2.6
2018-Jun-12 21:30N 30°04' W 093°22'0 0.1
2018-Jun-12 20:59N 30°04' W 093°22'0 0.1
2018-Jun-12 20:30N 30°04' W 093°22'0 0.8
2018-Jun-12 20:00N 30°04' W 093°21'0 0.2
2018-Jun-12 19:30N 30°04' W 093°21'0 0.7
2018-Jun-12 19:00N 30°04' W 093°22'0 0.4
2018-Jun-12 18:30N 30°04' W 093°22'0 0.1
2018-Jun-12 18:00N 30°04' W 093°22'0 0.0
2018-Jun-12 17:30N 30°04' W 093°22'0 0.0
2018-Jun-12 17:00N 30°04' W 093°22'0 0.0
2018-Jun-12 16:30N 30°04' W 093°22'0 0.0
2018-Jun-12 16:00N 30°04' W 093°22'0 0.0
2018-Jun-12 15:30N 30°04' W 093°22'0 0.0
2018-Jun-12 15:00N 30°04' W 093°22'0 0.0
2018-Jun-12 14:30N 30°04' W 093°22'0 0.0
2018-Jun-12 14:00N 30°04' W 093°22'0 0.0
2018-Jun-12 13:30N 30°04' W 093°22'0 0.0
2018-Jun-12 13:00N 30°04' W 093°22'0 0.1
2018-Jun-12 12:31N 30°04' W 093°22'0 0.0
2018-Jun-12 12:00N 30°04' W 093°22'0 0.0
2018-Jun-12 11:30N 30°04' W 093°22'0 0.0
2018-Jun-12 11:00N 30°04' W 093°22'0 0.0
2018-Jun-12 10:31N 30°04' W 093°22'0 0.1
2018-Jun-12 10:00N 30°04' W 093°22'0 0.0
2018-Jun-12 09:30N 30°04' W 093°22'0 0.0
2018-Jun-12 09:00N 30°04' W 093°22'0 0.0
2018-Jun-12 08:30N 30°04' W 093°22'0 0.0
2018-Jun-12 08:00N 30°04' W 093°22'0 0.0
2018-Jun-12 07:30N 30°04' W 093°22'0 0.0
2018-Jun-12 07:00N 30°04' W 093°22'0 0.1
2018-Jun-12 06:30N 30°04' W 093°22'0 0.0
2018-Jun-12 06:00N 30°04' W 093°22'0 0.1
2018-Jun-12 05:30N 30°04' W 093°22'0 0.0
2018-Jun-12 05:00N 30°04' W 093°22'1 1.8
2018-Jun-12 04:30N 30°04' W 093°21'1 2.8
2018-Jun-12 04:00N 30°05' W 093°20'1 1.6
2018-Jun-12 03:30N 30°04' W 093°20'1 2.8
2018-Jun-12 03:00N 30°04' W 093°22'0 0.1
2018-Jun-12 02:30N 30°04' W 093°22'0 0.7
2018-Jun-12 02:00N 30°04' W 093°21'0 0.9
2018-Jun-12 01:29N 30°04' W 093°22'0 0.1
2018-Jun-12 01:00N 30°04' W 093°22'2 3.1
2018-Jun-12 00:30N 30°04' W 093°24'2 4.7
2018-Jun-12 00:00N 30°04' W 093°26'2 4.8
2018-Jun-11 23:30N 30°04' W 093°29'2 4.8
2018-Jun-11 23:00N 30°04' W 093°32'3 4.7
2018-Jun-11 22:28N 30°04' W 093°35'2 4.8
2018-Jun-11 22:00N 30°04' W 093°37'3 5.1
2018-Jun-11 21:30N 30°04' W 093°40'3 5.5
2018-Jun-11 21:00N 30°03' W 093°44'3 5.9
2018-Jun-11 20:30N 30°01' W 093°46'3 6.1
2018-Jun-11 20:00N 29°59' W 093°49'3 5.2
2018-Jun-11 19:30N 29°58' W 093°51'1 1.5
2018-Jun-11 19:00N 29°57' W 093°52'0 0.0
2018-Jun-11 18:30N 29°57' W 093°52'0 0.1
2018-Jun-11 18:00N 29°57' W 093°52'0 0.7
2018-Jun-11 17:30N 29°58' W 093°52'0 0.3
2018-Jun-11 17:00N 29°58' W 093°52'0 0.1
2018-Jun-11 12:57N 29°58' W 093°52'0 0.0
2018-Jun-11 12:30N 29°58' W 093°52'1 1.2
2018-Jun-11 12:01N 29°58' W 093°52'0 0.5
2018-Jun-11 11:31N 29°58' W 093°52'0 0.0
2018-Jun-11 11:00N 29°58' W 093°52'0 0.0
2018-Jun-11 10:30N 29°58' W 093°52'0 0.0
2018-Jun-11 10:00N 29°58' W 093°52'0 0.0
2018-Jun-11 09:30N 29°58' W 093°52'0 0.0
2018-Jun-11 09:00N 29°58' W 093°52'0 0.0
2018-Jun-11 08:30N 29°58' W 093°52'0 0.0
2018-Jun-11 08:00N 29°58' W 093°52'0 0.0
2018-Jun-11 07:30N 29°58' W 093°52'0 0.0
2018-Jun-11 07:00N 29°58' W 093°52'0 0.0
2018-Jun-11 06:30N 29°58' W 093°52'0 0.3
2018-Jun-11 06:01N 29°58' W 093°52'1 1.0
2018-Jun-11 05:30N 29°57' W 093°52'2 4.2
2018-Jun-11 05:01N 29°55' W 093°53'4 7.4
2018-Jun-11 04:30N 29°52' W 093°56'2 4.7
2018-Jun-11 04:00N 29°50' W 093°57'2 3.2
2018-Jun-11 03:30N 29°49' W 093°58'0 0.0
2018-Jun-11 03:00N 29°49' W 093°58'0 0.0
2018-Jun-11 02:30N 29°49' W 093°58'0 0.1
2018-Jun-11 02:00N 29°49' W 093°58'0 0.3
2018-Jun-11 01:30N 29°49' W 093°58'0 0.4
2018-Jun-11 01:00N 29°49' W 093°58'0 0.1
2018-Jun-11 00:30N 29°49' W 093°58'0 0.0
2018-Jun-11 00:00N 29°49' W 093°58'0 0.0
2018-Jun-10 23:30N 29°49' W 093°58'0 0.0
2018-Jun-10 23:00N 29°49' W 093°58'0 0.1
2018-Jun-10 22:30N 29°49' W 093°58'0 0.1
2018-Jun-10 22:00N 29°49' W 093°58'0 0.0
2018-Jun-10 21:29N 29°49' W 093°58'0 0.0
2018-Jun-10 21:00N 29°49' W 093°58'1 1.5
2018-Jun-10 20:30N 29°50' W 093°57'3 5.5
2018-Jun-10 20:00N 29°52' W 093°56'  

Dump ship's entire track history